sensor_id;sensor_type;location;lat;lon;timestamp;P1;durP1;ratioP1;P2;durP2;ratioP2
46781;SDS011;32541;46.298;11.506;2023-03-01T00:02:02;4.37;;;2.83;;
46781;SDS011;32541;46.298;11.506;2023-03-01T00:04:27;6.23;;;2.57;;
46781;SDS011;32541;46.298;11.506;2023-03-01T00:06:53;5.23;;;2.50;;
46781;SDS011;32541;46.298;11.506;2023-03-01T00:09:19;4.50;;;2.37;;
46781;SDS011;32541;46.298;11.506;2023-03-01T00:11:44;5.33;;;2.70;;
46781;SDS011;32541;46.298;11.506;2023-03-01T00:14:09;4.20;;;2.47;;
46781;SDS011;32541;46.298;11.506;2023-03-01T00:16:39;3.63;;;2.07;;
46781;SDS011;32541;46.298;11.506;2023-03-01T00:19:15;3.07;;;2.13;;
46781;SDS011;32541;46.298;11.506;2023-03-01T00:21:42;4.00;;;2.33;;
46781;SDS011;32541;46.298;11.506;2023-03-01T00:24:08;4.80;;;2.20;;
46781;SDS011;32541;46.298;11.506;2023-03-01T00:26:34;5.07;;;2.60;;
46781;SDS011;32541;46.298;11.506;2023-03-01T00:28:59;4.87;;;2.40;;
46781;SDS011;32541;46.298;11.506;2023-03-01T00:31:26;5.37;;;2.63;;
46781;SDS011;32541;46.298;11.506;2023-03-01T00:33:57;4.57;;;2.37;;
46781;SDS011;32541;46.298;11.506;2023-03-01T00:36:28;3.37;;;2.37;;
46781;SDS011;32541;46.298;11.506;2023-03-01T00:38:56;6.03;;;2.47;;
46781;SDS011;32541;46.298;11.506;2023-03-01T00:41:22;3.73;;;2.30;;
46781;SDS011;32541;46.298;11.506;2023-03-01T00:43:48;4.17;;;2.27;;
46781;SDS011;32541;46.298;11.506;2023-03-01T00:46:25;5.43;;;2.10;;
46781;SDS011;32541;46.298;11.506;2023-03-01T00:48:52;3.63;;;1.90;;
46781;SDS011;32541;46.298;11.506;2023-03-01T00:51:19;3.03;;;1.90;;
46781;SDS011;32541;46.298;11.506;2023-03-01T00:53:49;3.77;;;1.70;;
46781;SDS011;32541;46.298;11.506;2023-03-01T00:56:16;5.17;;;1.93;;
46781;SDS011;32541;46.298;11.506;2023-03-01T00:58:41;4.70;;;1.63;;
46781;SDS011;32541;46.298;11.506;2023-03-01T01:01:11;4.57;;;2.00;;
46781;SDS011;32541;46.298;11.506;2023-03-01T01:06:18;4.53;;;2.37;;
46781;SDS011;32541;46.298;11.506;2023-03-01T01:08:45;4.30;;;2.17;;
46781;SDS011;32541;46.298;11.506;2023-03-01T01:11:11;3.43;;;1.97;;
46781;SDS011;32541;46.298;11.506;2023-03-01T01:13:38;4.50;;;2.40;;
46781;SDS011;32541;46.298;11.506;2023-03-01T01:16:04;4.33;;;2.17;;
46781;SDS011;32541;46.298;11.506;2023-03-01T01:18:29;3.60;;;2.17;;
46781;SDS011;32541;46.298;11.506;2023-03-01T01:20:55;4.37;;;2.57;;
46781;SDS011;32541;46.298;11.506;2023-03-01T01:23:20;5.17;;;2.40;;
46781;SDS011;32541;46.298;11.506;2023-03-01T01:25:46;3.63;;;2.30;;
46781;SDS011;32541;46.298;11.506;2023-03-01T01:28:11;6.40;;;2.50;;
46781;SDS011;32541;46.298;11.506;2023-03-01T01:30:36;3.57;;;1.90;;
46781;SDS011;32541;46.298;11.506;2023-03-01T01:33:02;4.80;;;2.00;;
46781;SDS011;32541;46.298;11.506;2023-03-01T01:35:27;2.97;;;2.03;;
46781;SDS011;32541;46.298;11.506;2023-03-01T01:37:53;3.10;;;1.80;;
46781;SDS011;32541;46.298;11.506;2023-03-01T01:40:18;4.63;;;2.50;;
46781;SDS011;32541;46.298;11.506;2023-03-01T01:42:44;2.70;;;1.50;;
46781;SDS011;32541;46.298;11.506;2023-03-01T01:45:42;5.97;;;1.80;;
46781;SDS011;32541;46.298;11.506;2023-03-01T01:48:04;3.93;;;2.10;;
46781;SDS011;32541;46.298;11.506;2023-03-01T01:50:35;3.57;;;1.70;;
46781;SDS011;32541;46.298;11.506;2023-03-01T01:53:06;3.33;;;1.63;;
46781;SDS011;32541;46.298;11.506;2023-03-01T01:55:39;3.00;;;1.70;;
46781;SDS011;32541;46.298;11.506;2023-03-01T01:58:09;2.63;;;1.40;;
46781;SDS011;32541;46.298;11.506;2023-03-01T02:00:38;3.67;;;2.13;;
46781;SDS011;32541;46.298;11.506;2023-03-01T02:03:14;2.53;;;1.60;;
46781;SDS011;32541;46.298;11.506;2023-03-01T02:08:14;3.63;;;1.60;;
46781;SDS011;32541;46.298;11.506;2023-03-01T02:10:43;3.00;;;1.50;;
46781;SDS011;32541;46.298;11.506;2023-03-01T02:13:10;3.17;;;1.73;;
46781;SDS011;32541;46.298;11.506;2023-03-01T02:15:36;3.30;;;1.37;;
46781;SDS011;32541;46.298;11.506;2023-03-01T02:18:03;5.40;;;1.37;;
46781;SDS011;32541;46.298;11.506;2023-03-01T02:23:04;3.70;;;1.73;;
46781;SDS011;32541;46.298;11.506;2023-03-01T02:30:41;3.50;;;1.90;;
46781;SDS011;32541;46.298;11.506;2023-03-01T02:33:27;2.80;;;1.90;;
46781;SDS011;32541;46.298;11.506;2023-03-01T02:35:54;4.03;;;2.07;;
46781;SDS011;32541;46.298;11.506;2023-03-01T02:38:20;4.67;;;2.00;;
46781;SDS011;32541;46.298;11.506;2023-03-01T02:40:47;4.90;;;2.50;;
46781;SDS011;32541;46.298;11.506;2023-03-01T02:43:14;4.60;;;2.00;;
46781;SDS011;32541;46.298;11.506;2023-03-01T02:45:47;4.23;;;1.70;;
46781;SDS011;32541;46.298;11.506;2023-03-01T02:48:15;5.43;;;1.83;;
46781;SDS011;32541;46.298;11.506;2023-03-01T02:50:46;2.33;;;1.30;;
46781;SDS011;32541;46.298;11.506;2023-03-01T02:53:21;3.63;;;1.80;;
46781;SDS011;32541;46.298;11.506;2023-03-01T02:56:00;3.50;;;1.80;;
46781;SDS011;32541;46.298;11.506;2023-03-01T02:58:26;2.40;;;1.20;;
46781;SDS011;32541;46.298;11.506;2023-03-01T03:00:52;2.37;;;1.70;;
46781;SDS011;32541;46.298;11.506;2023-03-01T03:03:17;5.67;;;1.60;;
46781;SDS011;32541;46.298;11.506;2023-03-01T03:05:45;2.73;;;1.50;;
46781;SDS011;32541;46.298;11.506;2023-03-01T03:08:11;3.53;;;1.87;;
46781;SDS011;32541;46.298;11.506;2023-03-01T03:10:40;3.77;;;2.23;;
46781;SDS011;32541;46.298;11.506;2023-03-01T03:13:08;9.43;;;4.87;;
46781;SDS011;32541;46.298;11.506;2023-03-01T03:15:36;18.67;;;6.83;;
46781;SDS011;32541;46.298;11.506;2023-03-01T03:18:05;10.73;;;5.63;;
46781;SDS011;32541;46.298;11.506;2023-03-01T03:20:32;7.20;;;3.57;;
46781;SDS011;32541;46.298;11.506;2023-03-01T03:22:58;5.57;;;2.93;;
46781;SDS011;32541;46.298;11.506;2023-03-01T03:25:24;3.77;;;2.10;;
46781;SDS011;32541;46.298;11.506;2023-03-01T03:27:51;2.90;;;1.80;;
46781;SDS011;32541;46.298;11.506;2023-03-01T03:30:25;3.45;;;1.70;;
46781;SDS011;32541;46.298;11.506;2023-03-01T03:32:51;2.80;;;1.90;;
46781;SDS011;32541;46.298;11.506;2023-03-01T03:35:21;2.57;;;1.40;;
46781;SDS011;32541;46.298;11.506;2023-03-01T03:37:49;2.33;;;1.53;;
46781;SDS011;32541;46.298;11.506;2023-03-01T03:40:41;3.77;;;1.93;;
46781;SDS011;32541;46.298;11.506;2023-03-01T03:43:12;3.13;;;1.70;;
46781;SDS011;32541;46.298;11.506;2023-03-01T03:45:40;3.40;;;1.73;;
46781;SDS011;32541;46.298;11.506;2023-03-01T03:48:06;3.43;;;1.63;;
46781;SDS011;32541;46.298;11.506;2023-03-01T03:50:34;3.43;;;1.47;;
46781;SDS011;32541;46.298;11.506;2023-03-01T03:53:00;3.63;;;1.53;;
46781;SDS011;32541;46.298;11.506;2023-03-01T03:55:26;2.67;;;1.57;;
46781;SDS011;32541;46.298;11.506;2023-03-01T03:57:56;3.03;;;1.50;;
46781;SDS011;32541;46.298;11.506;2023-03-01T04:00:23;3.73;;;1.77;;
46781;SDS011;32541;46.298;11.506;2023-03-01T04:02:49;3.03;;;2.03;;
46781;SDS011;32541;46.298;11.506;2023-03-01T04:05:16;2.80;;;1.50;;
46781;SDS011;32541;46.298;11.506;2023-03-01T04:07:44;2.80;;;1.57;;
46781;SDS011;32541;46.298;11.506;2023-03-01T04:10:12;2.97;;;1.50;;
46781;SDS011;32541;46.298;11.506;2023-03-01T04:12:39;1.83;;;1.23;;
46781;SDS011;32541;46.298;11.506;2023-03-01T04:15:05;5.83;;;1.53;;
46781;SDS011;32541;46.298;11.506;2023-03-01T04:20:12;3.90;;;1.90;;
46781;SDS011;32541;46.298;11.506;2023-03-01T04:22:42;3.07;;;1.30;;
46781;SDS011;32541;46.298;11.506;2023-03-01T04:25:11;2.90;;;1.60;;
46781;SDS011;32541;46.298;11.506;2023-03-01T04:27:39;2.37;;;1.37;;
46781;SDS011;32541;46.298;11.506;2023-03-01T04:30:06;2.30;;;1.50;;
46781;SDS011;32541;46.298;11.506;2023-03-01T04:32:33;2.53;;;1.40;;
46781;SDS011;32541;46.298;11.506;2023-03-01T04:34:59;2.47;;;1.40;;
46781;SDS011;32541;46.298;11.506;2023-03-01T04:37:25;2.63;;;1.43;;
46781;SDS011;32541;46.298;11.506;2023-03-01T04:39:51;2.50;;;1.43;;
46781;SDS011;32541;46.298;11.506;2023-03-01T04:42:16;2.83;;;1.67;;
46781;SDS011;32541;46.298;11.506;2023-03-01T04:44:42;4.70;;;2.40;;
46781;SDS011;32541;46.298;11.506;2023-03-01T04:47:08;5.13;;;3.00;;
46781;SDS011;32541;46.298;11.506;2023-03-01T04:49:33;3.77;;;2.10;;
46781;SDS011;32541;46.298;11.506;2023-03-01T04:51:59;4.43;;;2.37;;
46781;SDS011;32541;46.298;11.506;2023-03-01T04:54:27;5.37;;;2.53;;
46781;SDS011;32541;46.298;11.506;2023-03-01T04:56:55;3.97;;;2.40;;
46781;SDS011;32541;46.298;11.506;2023-03-01T04:59:21;7.73;;;2.37;;
46781;SDS011;32541;46.298;11.506;2023-03-01T05:01:47;3.07;;;1.97;;
46781;SDS011;32541;46.298;11.506;2023-03-01T05:04:13;5.43;;;2.90;;
46781;SDS011;32541;46.298;11.506;2023-03-01T05:06:39;4.73;;;2.93;;
46781;SDS011;32541;46.298;11.506;2023-03-01T05:09:05;3.00;;;1.83;;
46781;SDS011;32541;46.298;11.506;2023-03-01T05:11:30;2.83;;;1.83;;
46781;SDS011;32541;46.298;11.506;2023-03-01T05:14:00;3.50;;;1.83;;
46781;SDS011;32541;46.298;11.506;2023-03-01T05:16:30;5.03;;;2.60;;
46781;SDS011;32541;46.298;11.506;2023-03-01T05:18:56;6.13;;;3.80;;
46781;SDS011;32541;46.298;11.506;2023-03-01T05:21:22;6.60;;;2.63;;
46781;SDS011;32541;46.298;11.506;2023-03-01T05:23:48;5.57;;;3.43;;
46781;SDS011;32541;46.298;11.506;2023-03-01T05:26:14;5.67;;;3.20;;
46781;SDS011;32541;46.298;11.506;2023-03-01T05:28:40;3.83;;;2.67;;
46781;SDS011;32541;46.298;11.506;2023-03-01T05:31:05;6.13;;;1.73;;
46781;SDS011;32541;46.298;11.506;2023-03-01T05:33:35;2.73;;;1.80;;
46781;SDS011;32541;46.298;11.506;2023-03-01T05:36:10;5.20;;;2.87;;
46781;SDS011;32541;46.298;11.506;2023-03-01T05:38:36;7.30;;;4.60;;
46781;SDS011;32541;46.298;11.506;2023-03-01T05:41:01;8.10;;;5.57;;
46781;SDS011;32541;46.298;11.506;2023-03-01T05:43:29;14.50;;;8.70;;
46781;SDS011;32541;46.298;11.506;2023-03-01T05:45:58;56.57;;;28.07;;
46781;SDS011;32541;46.298;11.506;2023-03-01T05:48:24;84.47;;;36.23;;
46781;SDS011;32541;46.298;11.506;2023-03-01T05:50:50;53.67;;;24.73;;
46781;SDS011;32541;46.298;11.506;2023-03-01T05:53:17;58.37;;;26.70;;
46781;SDS011;32541;46.298;11.506;2023-03-01T05:55:46;68.17;;;35.40;;
46781;SDS011;32541;46.298;11.506;2023-03-01T05:58:16;48.60;;;27.57;;
46781;SDS011;32541;46.298;11.506;2023-03-01T06:00:44;39.53;;;24.83;;
46781;SDS011;32541;46.298;11.506;2023-03-01T06:03:11;7.53;;;5.30;;
46781;SDS011;32541;46.298;11.506;2023-03-01T06:05:39;9.10;;;5.40;;
46781;SDS011;32541;46.298;11.506;2023-03-01T06:08:05;5.57;;;3.27;;
46781;SDS011;32541;46.298;11.506;2023-03-01T06:10:31;4.67;;;2.70;;
46781;SDS011;32541;46.298;11.506;2023-03-01T06:12:57;3.70;;;2.27;;
46781;SDS011;32541;46.298;11.506;2023-03-01T06:15:23;5.30;;;3.10;;
46781;SDS011;32541;46.298;11.506;2023-03-01T06:17:48;8.00;;;2.90;;
46781;SDS011;32541;46.298;11.506;2023-03-01T06:20:19;6.90;;;3.57;;
46781;SDS011;32541;46.298;11.506;2023-03-01T06:22:46;7.97;;;4.43;;
46781;SDS011;32541;46.298;11.506;2023-03-01T06:25:13;8.40;;;3.67;;
46781;SDS011;32541;46.298;11.506;2023-03-01T06:27:40;7.87;;;4.57;;
46781;SDS011;32541;46.298;11.506;2023-03-01T06:30:07;11.80;;;6.00;;
46781;SDS011;32541;46.298;11.506;2023-03-01T06:32:34;18.70;;;9.63;;
46781;SDS011;32541;46.298;11.506;2023-03-01T06:35:00;13.30;;;8.93;;
46781;SDS011;32541;46.298;11.506;2023-03-01T06:37:25;99.07;;;46.10;;
46781;SDS011;32541;46.298;11.506;2023-03-01T06:39:51;22.20;;;13.27;;
46781;SDS011;32541;46.298;11.506;2023-03-01T06:42:17;21.43;;;11.83;;
46781;SDS011;32541;46.298;11.506;2023-03-01T06:44:43;15.00;;;7.50;;
46781;SDS011;32541;46.298;11.506;2023-03-01T06:47:09;11.13;;;6.20;;
46781;SDS011;32541;46.298;11.506;2023-03-01T06:49:34;8.67;;;5.23;;
46781;SDS011;32541;46.298;11.506;2023-03-01T06:51:59;10.67;;;5.93;;
46781;SDS011;32541;46.298;11.506;2023-03-01T06:54:25;18.57;;;7.70;;
46781;SDS011;32541;46.298;11.506;2023-03-01T06:56:50;7.33;;;5.03;;
46781;SDS011;32541;46.298;11.506;2023-03-01T06:59:16;10.47;;;3.90;;
46781;SDS011;32541;46.298;11.506;2023-03-01T07:01:42;2.70;;;1.63;;
46781;SDS011;32541;46.298;11.506;2023-03-01T07:04:08;5.07;;;1.90;;
46781;SDS011;32541;46.298;11.506;2023-03-01T07:06:34;4.33;;;2.20;;
46781;SDS011;32541;46.298;11.506;2023-03-01T07:08:59;2.17;;;1.50;;
46781;SDS011;32541;46.298;11.506;2023-03-01T07:11:25;10.77;;;3.60;;
46781;SDS011;32541;46.298;11.506;2023-03-01T07:13:50;11.77;;;5.47;;
46781;SDS011;32541;46.298;11.506;2023-03-01T07:16:15;16.37;;;8.57;;
46781;SDS011;32541;46.298;11.506;2023-03-01T07:18:41;24.77;;;11.97;;
46781;SDS011;32541;46.298;11.506;2023-03-01T07:21:11;33.77;;;16.03;;
46781;SDS011;32541;46.298;11.506;2023-03-01T07:23:38;20.57;;;9.50;;
46781;SDS011;32541;46.298;11.506;2023-03-01T07:26:03;18.23;;;9.07;;
46781;SDS011;32541;46.298;11.506;2023-03-01T07:28:29;14.77;;;6.50;;
46781;SDS011;32541;46.298;11.506;2023-03-01T07:30:58;21.63;;;9.90;;
46781;SDS011;32541;46.298;11.506;2023-03-01T07:33:26;32.23;;;15.73;;
46781;SDS011;32541;46.298;11.506;2023-03-01T07:35:55;36.60;;;15.20;;
46781;SDS011;32541;46.298;11.506;2023-03-01T07:38:24;25.92;;;12.55;;
46781;SDS011;32541;46.298;11.506;2023-03-01T07:40:50;17.00;;;9.45;;
46781;SDS011;32541;46.298;11.506;2023-03-01T07:43:15;16.92;;;9.90;;
46781;SDS011;32541;46.298;11.506;2023-03-01T07:45:41;15.77;;;9.00;;
46781;SDS011;32541;46.298;11.506;2023-03-01T07:48:06;10.68;;;6.13;;
46781;SDS011;32541;46.298;11.506;2023-03-01T07:50:31;6.68;;;4.30;;
46781;SDS011;32541;46.298;11.506;2023-03-01T07:52:57;6.78;;;4.05;;
46781;SDS011;32541;46.298;11.506;2023-03-01T07:55:22;5.57;;;3.80;;
46781;SDS011;32541;46.298;11.506;2023-03-01T07:57:48;8.02;;;4.03;;
46781;SDS011;32541;46.298;11.506;2023-03-01T08:00:13;7.80;;;3.45;;
46781;SDS011;32541;46.298;11.506;2023-03-01T08:02:39;4.57;;;2.53;;
46781;SDS011;32541;46.298;11.506;2023-03-01T08:05:06;7.35;;;2.47;;
46781;SDS011;32541;46.298;11.506;2023-03-01T08:07:32;4.85;;;2.70;;
46781;SDS011;32541;46.298;11.506;2023-03-01T08:09:58;3.85;;;2.47;;
46781;SDS011;32541;46.298;11.506;2023-03-01T08:12:23;16.38;;;7.30;;
46781;SDS011;32541;46.298;11.506;2023-03-01T08:14:48;11.83;;;8.13;;
46781;SDS011;32541;46.298;11.506;2023-03-01T08:17:14;13.83;;;8.10;;
46781;SDS011;32541;46.298;11.506;2023-03-01T08:19:39;20.43;;;8.80;;
46781;SDS011;32541;46.298;11.506;2023-03-01T08:22:05;18.77;;;8.53;;
46781;SDS011;32541;46.298;11.506;2023-03-01T08:24:30;16.40;;;8.27;;
46781;SDS011;32541;46.298;11.506;2023-03-01T08:26:56;19.33;;;8.33;;
46781;SDS011;32541;46.298;11.506;2023-03-01T08:29:22;18.20;;;8.93;;
46781;SDS011;32541;46.298;11.506;2023-03-01T08:31:49;16.40;;;8.67;;
46781;SDS011;32541;46.298;11.506;2023-03-01T08:34:15;15.73;;;8.90;;
46781;SDS011;32541;46.298;11.506;2023-03-01T08:36:42;21.73;;;8.77;;
46781;SDS011;32541;46.298;11.506;2023-03-01T08:39:10;16.33;;;8.50;;
46781;SDS011;32541;46.298;11.506;2023-03-01T08:41:37;18.07;;;9.27;;
46781;SDS011;32541;46.298;11.506;2023-03-01T08:44:03;18.87;;;7.63;;
46781;SDS011;32541;46.298;11.506;2023-03-01T08:46:30;9.97;;;6.47;;
46781;SDS011;32541;46.298;11.506;2023-03-01T08:48:59;13.87;;;7.87;;
46781;SDS011;32541;46.298;11.506;2023-03-01T08:51:25;16.73;;;8.87;;
46781;SDS011;32541;46.298;11.506;2023-03-01T08:53:51;16.10;;;7.63;;
46781;SDS011;32541;46.298;11.506;2023-03-01T08:56:17;21.27;;;7.13;;
46781;SDS011;32541;46.298;11.506;2023-03-01T08:58:46;19.77;;;7.13;;
46781;SDS011;32541;46.298;11.506;2023-03-01T09:01:14;9.17;;;4.80;;
46781;SDS011;32541;46.298;11.506;2023-03-01T09:03:41;14.10;;;5.83;;
46781;SDS011;32541;46.298;11.506;2023-03-01T09:06:07;8.13;;;5.03;;
46781;SDS011;32541;46.298;11.506;2023-03-01T09:08:34;10.27;;;5.07;;
46781;SDS011;32541;46.298;11.506;2023-03-01T09:11:10;18.67;;;5.70;;
46781;SDS011;32541;46.298;11.506;2023-03-01T09:13:38;13.10;;;4.93;;
46781;SDS011;32541;46.298;11.506;2023-03-01T09:16:04;7.03;;;4.90;;
46781;SDS011;32541;46.298;11.506;2023-03-01T09:18:31;6.30;;;3.57;;
46781;SDS011;32541;46.298;11.506;2023-03-01T09:21:08;8.33;;;3.20;;
46781;SDS011;32541;46.298;11.506;2023-03-01T09:23:36;2.73;;;1.50;;
46781;SDS011;32541;46.298;11.506;2023-03-01T09:26:18;3.50;;;1.80;;
46781;SDS011;32541;46.298;11.506;2023-03-01T09:28:46;3.53;;;2.03;;
46781;SDS011;32541;46.298;11.506;2023-03-01T09:31:12;3.90;;;1.90;;
46781;SDS011;32541;46.298;11.506;2023-03-01T09:33:38;7.83;;;4.03;;
46781;SDS011;32541;46.298;11.506;2023-03-01T09:36:05;11.83;;;6.03;;
46781;SDS011;32541;46.298;11.506;2023-03-01T09:38:33;9.73;;;5.07;;
46781;SDS011;32541;46.298;11.506;2023-03-01T09:40:59;7.47;;;3.17;;
46781;SDS011;32541;46.298;11.506;2023-03-01T09:46:09;7.57;;;3.05;;
46781;SDS011;32541;46.298;11.506;2023-03-01T09:48:41;11.87;;;4.33;;
46781;SDS011;32541;46.298;11.506;2023-03-01T09:53:51;6.37;;;4.03;;
46781;SDS011;32541;46.298;11.506;2023-03-01T09:56:20;6.33;;;3.63;;
46781;SDS011;32541;46.298;11.506;2023-03-01T10:04:48;19.93;;;5.83;;
46781;SDS011;32541;46.298;11.506;2023-03-01T10:10:16;7.03;;;3.47;;
46781;SDS011;32541;46.298;11.506;2023-03-01T10:12:51;7.83;;;4.20;;
46781;SDS011;32541;46.298;11.506;2023-03-01T10:15:18;14.13;;;4.80;;
46781;SDS011;32541;46.298;11.506;2023-03-01T10:17:57;8.50;;;4.17;;
46781;SDS011;32541;46.298;11.506;2023-03-01T10:20:39;6.90;;;4.00;;
46781;SDS011;32541;46.298;11.506;2023-03-01T10:23:26;8.13;;;4.03;;
46781;SDS011;32541;46.298;11.506;2023-03-01T10:26:01;6.90;;;3.63;;
46781;SDS011;32541;46.298;11.506;2023-03-01T10:29:04;5.23;;;3.20;;
46781;SDS011;32541;46.298;11.506;2023-03-01T10:34:30;6.00;;;2.93;;
46781;SDS011;32541;46.298;11.506;2023-03-01T10:37:01;3.93;;;2.63;;
46781;SDS011;32541;46.298;11.506;2023-03-01T10:39:34;4.53;;;2.80;;
46781;SDS011;32541;46.298;11.506;2023-03-01T10:42:04;5.03;;;2.53;;
46781;SDS011;32541;46.298;11.506;2023-03-01T10:49:51;3.70;;;2.27;;
46781;SDS011;32541;46.298;11.506;2023-03-01T10:52:23;12.87;;;4.77;;
46781;SDS011;32541;46.298;11.506;2023-03-01T10:55:04;11.33;;;4.30;;
46781;SDS011;32541;46.298;11.506;2023-03-01T10:57:56;5.77;;;3.60;;
46781;SDS011;32541;46.298;11.506;2023-03-01T11:00:32;6.90;;;4.37;;
46781;SDS011;32541;46.298;11.506;2023-03-01T11:05:24;11.30;;;3.30;;
46781;SDS011;32541;46.298;11.506;2023-03-01T11:07:54;7.13;;;4.47;;
46781;SDS011;32541;46.298;11.506;2023-03-01T11:10:31;7.60;;;4.30;;
46781;SDS011;32541;46.298;11.506;2023-03-01T11:13:15;7.87;;;3.10;;
46781;SDS011;32541;46.298;11.506;2023-03-01T11:15:41;8.33;;;2.63;;
46781;SDS011;32541;46.298;11.506;2023-03-01T11:18:22;3.63;;;2.20;;
46781;SDS011;32541;46.298;11.506;2023-03-01T11:20:48;5.83;;;3.63;;
46781;SDS011;32541;46.298;11.506;2023-03-01T11:23:18;5.47;;;2.77;;
46781;SDS011;32541;46.298;11.506;2023-03-01T11:25:49;3.77;;;1.83;;
46781;SDS011;32541;46.298;11.506;2023-03-01T11:28:19;3.77;;;2.07;;
46781;SDS011;32541;46.298;11.506;2023-03-01T11:33:47;3.37;;;1.20;;
46781;SDS011;32541;46.298;11.506;2023-03-01T11:36:35;2.00;;;1.10;;
46781;SDS011;32541;46.298;11.506;2023-03-01T11:41:52;2.77;;;1.80;;
46781;SDS011;32541;46.298;11.506;2023-03-01T11:44:27;4.30;;;2.17;;
46781;SDS011;32541;46.298;11.506;2023-03-01T11:52:34;9.57;;;5.40;;
46781;SDS011;32541;46.298;11.506;2023-03-01T12:06:07;10.03;;;4.50;;
46781;SDS011;32541;46.298;11.506;2023-03-01T12:09:02;4.83;;;2.80;;
46781;SDS011;32541;46.298;11.506;2023-03-01T12:17:25;8.13;;;4.13;;
46781;SDS011;32541;46.298;11.506;2023-03-01T12:20:05;5.33;;;4.10;;
46781;SDS011;32541;46.298;11.506;2023-03-01T12:28:07;6.30;;;3.77;;
46781;SDS011;32541;46.298;11.506;2023-03-01T12:30:58;8.07;;;4.60;;
46781;SDS011;32541;46.298;11.506;2023-03-01T12:33:47;12.77;;;5.90;;
46781;SDS011;32541;46.298;11.506;2023-03-01T12:36:25;10.43;;;6.17;;
46781;SDS011;32541;46.298;11.506;2023-03-01T12:49:34;7.20;;;4.10;;
46781;SDS011;32541;46.298;11.506;2023-03-01T12:54:47;10.60;;;6.27;;
46781;SDS011;32541;46.298;11.506;2023-03-01T12:57:18;7.80;;;5.37;;
46781;SDS011;32541;46.298;11.506;2023-03-01T13:02:37;9.10;;;3.03;;
46781;SDS011;32541;46.298;11.506;2023-03-01T13:05:23;8.00;;;3.77;;
46781;SDS011;32541;46.298;11.506;2023-03-01T13:10:33;8.17;;;4.03;;
46781;SDS011;32541;46.298;11.506;2023-03-01T13:15:33;16.13;;;8.10;;
46781;SDS011;32541;46.298;11.506;2023-03-01T13:28:37;15.87;;;7.30;;
46781;SDS011;32541;46.298;11.506;2023-03-01T13:36:07;12.00;;;6.50;;
46781;SDS011;32541;46.298;11.506;2023-03-01T13:38:36;10.37;;;5.93;;
46781;SDS011;32541;46.298;11.506;2023-03-01T13:41:04;8.80;;;5.30;;
46781;SDS011;32541;46.298;11.506;2023-03-01T13:45:55;11.48;;;4.90;;
46781;SDS011;32541;46.298;11.506;2023-03-01T13:48:23;10.45;;;4.35;;
46781;SDS011;32541;46.298;11.506;2023-03-01T13:50:55;7.97;;;3.30;;
46781;SDS011;32541;46.298;11.506;2023-03-01T13:53:25;7.72;;;3.45;;
46781;SDS011;32541;46.298;11.506;2023-03-01T13:55:58;7.28;;;2.80;;
46781;SDS011;32541;46.298;11.506;2023-03-01T13:58:28;6.70;;;2.30;;
46781;SDS011;32541;46.298;11.506;2023-03-01T14:01:00;8.45;;;2.95;;
46781;SDS011;32541;46.298;11.506;2023-03-01T14:03:30;7.05;;;2.90;;
46781;SDS011;32541;46.298;11.506;2023-03-01T14:08:26;8.17;;;3.27;;
46781;SDS011;32541;46.298;11.506;2023-03-01T14:10:57;5.10;;;2.00;;
46781;SDS011;32541;46.298;11.506;2023-03-01T14:21:41;4.03;;;2.47;;
46781;SDS011;32541;46.298;11.506;2023-03-01T14:24:15;6.50;;;4.17;;
46781;SDS011;32541;46.298;11.506;2023-03-01T14:26:43;3.90;;;2.20;;
46781;SDS011;32541;46.298;11.506;2023-03-01T14:29:22;4.93;;;2.60;;
46781;SDS011;32541;46.298;11.506;2023-03-01T14:31:49;7.63;;;3.50;;
46781;SDS011;32541;46.298;11.506;2023-03-01T14:34:21;14.83;;;3.40;;
46781;SDS011;32541;46.298;11.506;2023-03-01T14:36:48;17.40;;;7.80;;
46781;SDS011;32541;46.298;11.506;2023-03-01T14:39:22;7.57;;;4.40;;
46781;SDS011;32541;46.298;11.506;2023-03-01T14:41:51;8.87;;;3.10;;
46781;SDS011;32541;46.298;11.506;2023-03-01T14:44:21;10.00;;;3.03;;
46781;SDS011;32541;46.298;11.506;2023-03-01T14:46:51;9.43;;;3.07;;
46781;SDS011;32541;46.298;11.506;2023-03-01T14:49:19;7.37;;;3.73;;
46781;SDS011;32541;46.298;11.506;2023-03-01T14:51:54;6.83;;;3.33;;
46781;SDS011;32541;46.298;11.506;2023-03-01T14:57:28;8.03;;;3.07;;
46781;SDS011;32541;46.298;11.506;2023-03-01T14:59:53;10.80;;;5.53;;
46781;SDS011;32541;46.298;11.506;2023-03-01T15:02:22;37.73;;;17.23;;
46781;SDS011;32541;46.298;11.506;2023-03-01T15:04:51;15.47;;;6.20;;
46781;SDS011;32541;46.298;11.506;2023-03-01T15:07:21;10.80;;;4.73;;
46781;SDS011;32541;46.298;11.506;2023-03-01T15:09:51;8.03;;;3.60;;
46781;SDS011;32541;46.298;11.506;2023-03-01T15:14:57;7.67;;;3.63;;
46781;SDS011;32541;46.298;11.506;2023-03-01T15:19:57;6.75;;;3.22;;
46781;SDS011;32541;46.298;11.506;2023-03-01T15:22:23;8.90;;;3.73;;
46781;SDS011;32541;46.298;11.506;2023-03-01T15:24:51;10.43;;;4.23;;
46781;SDS011;32541;46.298;11.506;2023-03-01T15:27:18;6.77;;;3.27;;
46781;SDS011;32541;46.298;11.506;2023-03-01T15:29:59;7.33;;;4.23;;
46781;SDS011;32541;46.298;11.506;2023-03-01T15:32:28;6.77;;;3.70;;
46781;SDS011;32541;46.298;11.506;2023-03-01T15:38:22;8.70;;;3.40;;
46781;SDS011;32541;46.298;11.506;2023-03-01T15:40:55;7.37;;;3.40;;
46781;SDS011;32541;46.298;11.506;2023-03-01T15:43:44;13.07;;;5.97;;
46781;SDS011;32541;46.298;11.506;2023-03-01T15:46:29;11.13;;;4.50;;
46781;SDS011;32541;46.298;11.506;2023-03-01T15:49:04;7.53;;;3.47;;
46781;SDS011;32541;46.298;11.506;2023-03-01T15:51:44;4.33;;;2.50;;
46781;SDS011;32541;46.298;11.506;2023-03-01T15:54:13;9.20;;;3.30;;
46781;SDS011;32541;46.298;11.506;2023-03-01T15:56:46;8.83;;;3.90;;
46781;SDS011;32541;46.298;11.506;2023-03-01T15:59:12;7.90;;;4.27;;
46781;SDS011;32541;46.298;11.506;2023-03-01T16:01:41;9.13;;;5.20;;
46781;SDS011;32541;46.298;11.506;2023-03-01T16:04:11;9.47;;;4.33;;
46781;SDS011;32541;46.298;11.506;2023-03-01T16:06:41;7.40;;;3.73;;
46781;SDS011;32541;46.298;11.506;2023-03-01T16:09:07;10.43;;;4.77;;
46781;SDS011;32541;46.298;11.506;2023-03-01T16:11:33;16.77;;;9.17;;
46781;SDS011;32541;46.298;11.506;2023-03-01T16:14:01;8.30;;;5.33;;
46781;SDS011;32541;46.298;11.506;2023-03-01T16:16:28;17.23;;;5.73;;
46781;SDS011;32541;46.298;11.506;2023-03-01T16:18:54;7.53;;;4.43;;
46781;SDS011;32541;46.298;11.506;2023-03-01T16:21:21;13.10;;;6.90;;
46781;SDS011;32541;46.298;11.506;2023-03-01T16:23:48;10.13;;;5.10;;
46781;SDS011;32541;46.298;11.506;2023-03-01T16:26:14;9.73;;;5.73;;
46781;SDS011;32541;46.298;11.506;2023-03-01T16:28:41;9.77;;;4.93;;
46781;SDS011;32541;46.298;11.506;2023-03-01T16:31:07;8.37;;;4.73;;
46781;SDS011;32541;46.298;11.506;2023-03-01T16:33:34;12.27;;;5.70;;
46781;SDS011;32541;46.298;11.506;2023-03-01T16:36:00;11.60;;;6.20;;
46781;SDS011;32541;46.298;11.506;2023-03-01T16:38:31;13.60;;;6.60;;
46781;SDS011;32541;46.298;11.506;2023-03-01T16:40:57;18.20;;;6.07;;
46781;SDS011;32541;46.298;11.506;2023-03-01T16:43:22;12.80;;;5.90;;
46781;SDS011;32541;46.298;11.506;2023-03-01T16:45:48;11.50;;;5.53;;
46781;SDS011;32541;46.298;11.506;2023-03-01T16:48:13;12.63;;;5.80;;
46781;SDS011;32541;46.298;11.506;2023-03-01T16:50:39;15.53;;;7.20;;
46781;SDS011;32541;46.298;11.506;2023-03-01T16:53:05;25.07;;;11.70;;
46781;SDS011;32541;46.298;11.506;2023-03-01T16:55:31;49.83;;;22.87;;
46781;SDS011;32541;46.298;11.506;2023-03-01T16:57:56;46.57;;;26.73;;